sensor_id;sensor_type;location;lat;lon;timestamp;P1;durP1;ratioP1;P2;durP2;ratioP2
72319;SDS011;60269;52.502;16.732;2024-03-02T00:02:41;85.35;;;35.03;;
72319;SDS011;60269;52.502;16.732;2024-03-02T00:06:13;80.50;;;34.80;;
72319;SDS011;60269;52.502;16.732;2024-03-02T00:09:45;76.93;;;36.05;;
72319;SDS011;60269;52.502;16.732;2024-03-02T00:13:19;77.18;;;34.60;;
72319;SDS011;60269;52.502;16.732;2024-03-02T00:16:54;85.73;;;36.93;;
72319;SDS011;60269;52.502;16.732;2024-03-02T00:20:28;90.70;;;34.75;;
72319;SDS011;60269;52.502;16.732;2024-03-02T00:24:00;87.22;;;34.95;;
72319;SDS011;60269;52.502;16.732;2024-03-02T00:27:38;84.10;;;36.47;;
72319;SDS011;60269;52.502;16.732;2024-03-02T00:31:11;76.07;;;34.67;;
72319;SDS011;60269;52.502;16.732;2024-03-02T00:34:44;84.70;;;34.58;;
72319;SDS011;60269;52.502;16.732;2024-03-02T00:38:16;88.88;;;36.47;;
72319;SDS011;60269;52.502;16.732;2024-03-02T00:41:48;84.40;;;34.77;;
72319;SDS011;60269;52.502;16.732;2024-03-02T00:45:20;91.75;;;36.30;;
72319;SDS011;60269;52.502;16.732;2024-03-02T00:48:55;83.25;;;35.33;;
72319;SDS011;60269;52.502;16.732;2024-03-02T00:52:29;86.70;;;34.87;;
72319;SDS011;60269;52.502;16.732;2024-03-02T00:56:01;90.25;;;34.80;;
72319;SDS011;60269;52.502;16.732;2024-03-02T00:59:33;81.75;;;36.28;;
72319;SDS011;60269;52.502;16.732;2024-03-02T01:03:05;88.47;;;36.05;;
72319;SDS011;60269;52.502;16.732;2024-03-02T01:06:37;81.50;;;35.63;;
72319;SDS011;60269;52.502;16.732;2024-03-02T01:10:09;88.75;;;38.03;;
72319;SDS011;60269;52.502;16.732;2024-03-02T01:13:42;87.43;;;35.30;;
72319;SDS011;60269;52.502;16.732;2024-03-02T01:17:14;92.97;;;36.13;;
72319;SDS011;60269;52.502;16.732;2024-03-02T01:20:46;92.78;;;36.20;;
72319;SDS011;60269;52.502;16.732;2024-03-02T01:24:18;92.57;;;36.08;;
72319;SDS011;60269;52.502;16.732;2024-03-02T01:27:50;86.40;;;36.20;;
72319;SDS011;60269;52.502;16.732;2024-03-02T01:31:22;92.80;;;35.75;;
72319;SDS011;60269;52.502;16.732;2024-03-02T01:34:55;87.60;;;34.13;;
72319;SDS011;60269;52.502;16.732;2024-03-02T01:38:27;91.63;;;35.13;;
72319;SDS011;60269;52.502;16.732;2024-03-02T01:42:00;97.57;;;36.90;;
72319;SDS011;60269;52.502;16.732;2024-03-02T01:45:32;95.57;;;35.70;;
72319;SDS011;60269;52.502;16.732;2024-03-02T01:49:04;89.22;;;34.92;;
72319;SDS011;60269;52.502;16.732;2024-03-02T01:52:38;86.33;;;32.83;;
72319;SDS011;60269;52.502;16.732;2024-03-02T01:56:10;86.40;;;35.65;;
72319;SDS011;60269;52.502;16.732;2024-03-02T01:59:42;88.43;;;32.75;;
72319;SDS011;60269;52.502;16.732;2024-03-02T02:03:15;89.57;;;35.40;;
72319;SDS011;60269;52.502;16.732;2024-03-02T02:06:47;86.50;;;34.85;;
72319;SDS011;60269;52.502;16.732;2024-03-02T02:10:19;88.68;;;33.25;;
72319;SDS011;60269;52.502;16.732;2024-03-02T02:13:51;84.22;;;33.20;;
72319;SDS011;60269;52.502;16.732;2024-03-02T02:17:23;90.77;;;32.90;;
72319;SDS011;60269;52.502;16.732;2024-03-02T02:20:55;84.65;;;33.42;;
72319;SDS011;60269;52.502;16.732;2024-03-02T02:24:27;90.57;;;32.90;;
72319;SDS011;60269;52.502;16.732;2024-03-02T02:27:59;83.37;;;34.37;;
72319;SDS011;60269;52.502;16.732;2024-03-02T02:31:37;93.10;;;36.10;;
72319;SDS011;60269;52.502;16.732;2024-03-02T02:35:12;86.00;;;33.80;;
72319;SDS011;60269;52.502;16.732;2024-03-02T02:38:45;90.47;;;32.53;;
72319;SDS011;60269;52.502;16.732;2024-03-02T02:42:20;85.53;;;32.63;;
72319;SDS011;60269;52.502;16.732;2024-03-02T02:45:52;90.53;;;33.05;;
72319;SDS011;60269;52.502;16.732;2024-03-02T02:49:24;86.68;;;31.88;;
72319;SDS011;60269;52.502;16.732;2024-03-02T02:52:56;81.20;;;29.87;;
72319;SDS011;60269;52.502;16.732;2024-03-02T02:56:28;72.30;;;30.77;;
72319;SDS011;60269;52.502;16.732;2024-03-02T03:00:01;71.97;;;28.17;;
72319;SDS011;60269;52.502;16.732;2024-03-02T03:03:37;72.60;;;28.80;;
72319;SDS011;60269;52.502;16.732;2024-03-02T03:07:09;70.95;;;29.58;;
72319;SDS011;60269;52.502;16.732;2024-03-02T03:10:41;72.80;;;29.05;;
72319;SDS011;60269;52.502;16.732;2024-03-02T03:14:13;71.83;;;28.80;;
72319;SDS011;60269;52.502;16.732;2024-03-02T03:17:45;68.85;;;26.05;;
72319;SDS011;60269;52.502;16.732;2024-03-02T03:21:19;71.53;;;27.45;;
72319;SDS011;60269;52.502;16.732;2024-03-02T03:24:51;66.35;;;26.25;;
72319;SDS011;60269;52.502;16.732;2024-03-02T03:28:23;72.10;;;28.10;;
72319;SDS011;60269;52.502;16.732;2024-03-02T03:31:55;64.93;;;24.75;;
72319;SDS011;60269;52.502;16.732;2024-03-02T03:35:27;66.75;;;26.13;;
72319;SDS011;60269;52.502;16.732;2024-03-02T03:38:59;61.90;;;24.77;;
72319;SDS011;60269;52.502;16.732;2024-03-02T03:42:33;66.20;;;24.75;;
72319;SDS011;60269;52.502;16.732;2024-03-02T03:46:05;57.70;;;24.90;;
72319;SDS011;60269;52.502;16.732;2024-03-02T03:49:37;66.53;;;26.67;;
72319;SDS011;60269;52.502;16.732;2024-03-02T03:53:09;60.08;;;24.88;;
72319;SDS011;60269;52.502;16.732;2024-03-02T03:56:41;58.75;;;24.83;;
72319;SDS011;60269;52.502;16.732;2024-03-02T04:00:14;57.08;;;24.77;;
72319;SDS011;60269;52.502;16.732;2024-03-02T04:03:46;63.90;;;24.37;;
72319;SDS011;60269;52.502;16.732;2024-03-02T04:07:18;62.15;;;24.58;;
72319;SDS011;60269;52.502;16.732;2024-03-02T04:10:50;59.38;;;25.23;;
72319;SDS011;60269;52.502;16.732;2024-03-02T04:14:22;60.13;;;23.60;;
72319;SDS011;60269;52.502;16.732;2024-03-02T04:17:53;58.42;;;24.27;;
72319;SDS011;60269;52.502;16.732;2024-03-02T04:21:26;54.50;;;23.60;;
72319;SDS011;60269;52.502;16.732;2024-03-02T04:24:59;61.23;;;24.10;;
72319;SDS011;60269;52.502;16.732;2024-03-02T04:28:31;56.58;;;24.05;;
72319;SDS011;60269;52.502;16.732;2024-03-02T04:32:03;57.63;;;23.05;;
72319;SDS011;60269;52.502;16.732;2024-03-02T04:35:38;59.08;;;24.17;;
72319;SDS011;60269;52.502;16.732;2024-03-02T04:39:10;57.80;;;23.27;;
72319;SDS011;60269;52.502;16.732;2024-03-02T04:42:42;54.28;;;21.00;;
72319;SDS011;60269;52.502;16.732;2024-03-02T04:46:14;54.25;;;22.02;;
72319;SDS011;60269;52.502;16.732;2024-03-02T04:49:47;63.80;;;23.93;;
72319;SDS011;60269;52.502;16.732;2024-03-02T04:53:18;60.63;;;23.17;;
72319;SDS011;60269;52.502;16.732;2024-03-02T04:56:50;56.17;;;21.88;;
72319;SDS011;60269;52.502;16.732;2024-03-02T05:00:22;57.17;;;23.73;;
72319;SDS011;60269;52.502;16.732;2024-03-02T05:03:55;55.55;;;21.17;;
72319;SDS011;60269;52.502;16.732;2024-03-02T05:07:28;59.35;;;23.52;;
72319;SDS011;60269;52.502;16.732;2024-03-02T05:11:00;56.38;;;22.75;;
72319;SDS011;60269;52.502;16.732;2024-03-02T05:14:52;52.87;;;22.10;;
72319;SDS011;60269;52.502;16.732;2024-03-02T05:18:24;61.20;;;21.92;;
72319;SDS011;60269;52.502;16.732;2024-03-02T05:21:56;51.22;;;21.50;;
72319;SDS011;60269;52.502;16.732;2024-03-02T05:25:28;57.83;;;22.60;;
72319;SDS011;60269;52.502;16.732;2024-03-02T05:29:00;50.67;;;21.55;;
72319;SDS011;60269;52.502;16.732;2024-03-02T05:32:35;53.72;;;22.05;;
72319;SDS011;60269;52.502;16.732;2024-03-02T05:36:07;54.53;;;22.37;;
72319;SDS011;60269;52.502;16.732;2024-03-02T05:39:40;47.83;;;20.80;;
72319;SDS011;60269;52.502;16.732;2024-03-02T05:43:12;56.58;;;22.90;;
72319;SDS011;60269;52.502;16.732;2024-03-02T05:46:44;51.40;;;22.40;;
72319;SDS011;60269;52.502;16.732;2024-03-02T05:50:15;49.33;;;21.17;;
72319;SDS011;60269;52.502;16.732;2024-03-02T05:53:47;43.47;;;20.00;;
72319;SDS011;60269;52.502;16.732;2024-03-02T05:57:19;55.55;;;21.88;;
72319;SDS011;60269;52.502;16.732;2024-03-02T06:01:19;46.93;;;20.13;;
72319;SDS011;60269;52.502;16.732;2024-03-02T06:04:52;50.85;;;21.38;;
72319;SDS011;60269;52.502;16.732;2024-03-02T06:08:25;52.40;;;21.20;;
72319;SDS011;60269;52.502;16.732;2024-03-02T06:11:57;53.13;;;21.30;;
72319;SDS011;60269;52.502;16.732;2024-03-02T06:15:29;49.72;;;20.27;;
72319;SDS011;60269;52.502;16.732;2024-03-02T06:19:01;49.10;;;20.55;;
72319;SDS011;60269;52.502;16.732;2024-03-02T06:22:34;49.55;;;20.90;;
72319;SDS011;60269;52.502;16.732;2024-03-02T06:26:06;50.70;;;21.63;;
72319;SDS011;60269;52.502;16.732;2024-03-02T06:29:38;54.42;;;22.25;;
72319;SDS011;60269;52.502;16.732;2024-03-02T06:33:10;51.55;;;22.27;;
72319;SDS011;60269;52.502;16.732;2024-03-02T06:36:42;57.27;;;21.00;;
72319;SDS011;60269;52.502;16.732;2024-03-02T06:40:14;54.50;;;22.27;;
72319;SDS011;60269;52.502;16.732;2024-03-02T06:43:47;55.42;;;22.30;;
72319;SDS011;60269;52.502;16.732;2024-03-02T06:47:18;52.20;;;21.77;;
72319;SDS011;60269;52.502;16.732;2024-03-02T06:50:52;52.90;;;22.38;;
72319;SDS011;60269;52.502;16.732;2024-03-02T06:54:24;54.35;;;21.85;;
72319;SDS011;60269;52.502;16.732;2024-03-02T06:57:56;49.42;;;20.08;;
72319;SDS011;60269;52.502;16.732;2024-03-02T07:01:28;51.87;;;21.37;;
72319;SDS011;60269;52.502;16.732;2024-03-02T07:05:00;47.55;;;21.10;;
72319;SDS011;60269;52.502;16.732;2024-03-02T07:08:32;53.88;;;23.02;;
72319;SDS011;60269;52.502;16.732;2024-03-02T07:12:04;47.30;;;20.07;;
72319;SDS011;60269;52.502;16.732;2024-03-02T07:15:36;47.15;;;19.88;;
72319;SDS011;60269;52.502;16.732;2024-03-02T07:19:46;47.08;;;20.05;;
72319;SDS011;60269;52.502;16.732;2024-03-02T07:23:18;50.90;;;20.97;;
72319;SDS011;60269;52.502;16.732;2024-03-02T07:26:51;43.28;;;18.15;;
72319;SDS011;60269;52.502;16.732;2024-03-02T07:30:26;47.08;;;20.48;;
72319;SDS011;60269;52.502;16.732;2024-03-02T07:33:58;44.85;;;20.13;;
72319;SDS011;60269;52.502;16.732;2024-03-02T07:37:30;50.00;;;20.37;;
72319;SDS011;60269;52.502;16.732;2024-03-02T07:41:02;46.78;;;19.67;;
72319;SDS011;60269;52.502;16.732;2024-03-02T07:44:36;44.67;;;19.40;;
72319;SDS011;60269;52.502;16.732;2024-03-02T07:48:10;48.57;;;19.80;;
72319;SDS011;60269;52.502;16.732;2024-03-02T07:51:43;45.42;;;20.10;;
72319;SDS011;60269;52.502;16.732;2024-03-02T07:55:15;46.20;;;19.80;;
72319;SDS011;60269;52.502;16.732;2024-03-02T07:58:48;53.53;;;18.93;;
72319;SDS011;60269;52.502;16.732;2024-03-02T08:02:20;43.00;;;20.48;;
72319;SDS011;60269;52.502;16.732;2024-03-02T08:05:53;44.25;;;19.38;;
72319;SDS011;60269;52.502;16.732;2024-03-02T08:09:25;45.85;;;20.67;;
72319;SDS011;60269;52.502;16.732;2024-03-02T08:12:57;50.27;;;22.33;;
72319;SDS011;60269;52.502;16.732;2024-03-02T08:16:29;48.17;;;21.52;;
72319;SDS011;60269;52.502;16.732;2024-03-02T08:20:01;40.22;;;19.48;;
72319;SDS011;60269;52.502;16.732;2024-03-02T08:23:35;47.57;;;20.93;;
72319;SDS011;60269;52.502;16.732;2024-03-02T08:27:07;44.00;;;19.67;;
72319;SDS011;60269;52.502;16.732;2024-03-02T08:30:39;46.88;;;20.10;;
72319;SDS011;60269;52.502;16.732;2024-03-02T08:34:11;47.07;;;21.50;;
72319;SDS011;60269;52.502;16.732;2024-03-02T08:37:43;40.47;;;18.30;;
72319;SDS011;60269;52.502;16.732;2024-03-02T08:41:15;38.88;;;18.25;;
72319;SDS011;60269;52.502;16.732;2024-03-02T08:44:47;44.28;;;20.27;;
72319;SDS011;60269;52.502;16.732;2024-03-02T08:48:20;40.53;;;17.50;;
72319;SDS011;60269;52.502;16.732;2024-03-02T08:51:52;40.00;;;18.00;;
72319;SDS011;60269;52.502;16.732;2024-03-02T08:55:27;42.80;;;18.80;;
72319;SDS011;60269;52.502;16.732;2024-03-02T08:59:00;40.60;;;18.63;;
72319;SDS011;60269;52.502;16.732;2024-03-02T09:02:32;40.22;;;19.13;;
72319;SDS011;60269;52.502;16.732;2024-03-02T09:06:04;35.88;;;17.42;;
72319;SDS011;60269;52.502;16.732;2024-03-02T09:09:36;42.73;;;18.83;;
72319;SDS011;60269;52.502;16.732;2024-03-02T09:13:10;47.67;;;20.10;;
72319;SDS011;60269;52.502;16.732;2024-03-02T09:16:42;38.70;;;18.48;;
72319;SDS011;60269;52.502;16.732;2024-03-02T09:20:14;36.22;;;17.55;;
72319;SDS011;60269;52.502;16.732;2024-03-02T09:23:46;39.83;;;17.90;;
72319;SDS011;60269;52.502;16.732;2024-03-02T09:27:20;40.63;;;17.60;;
72319;SDS011;60269;52.502;16.732;2024-03-02T09:30:52;34.72;;;16.92;;
72319;SDS011;60269;52.502;16.732;2024-03-02T09:34:26;35.03;;;16.73;;
72319;SDS011;60269;52.502;16.732;2024-03-02T09:37:58;36.28;;;17.45;;
72319;SDS011;60269;52.502;16.732;2024-03-02T09:41:31;34.28;;;16.40;;
72319;SDS011;60269;52.502;16.732;2024-03-02T09:45:05;35.97;;;17.47;;
72319;SDS011;60269;52.502;16.732;2024-03-02T09:48:37;34.67;;;17.30;;
72319;SDS011;60269;52.502;16.732;2024-03-02T09:52:10;36.97;;;15.85;;
72319;SDS011;60269;52.502;16.732;2024-03-02T09:55:45;38.80;;;15.68;;
72319;SDS011;60269;52.502;16.732;2024-03-02T09:59:18;37.07;;;15.90;;
72319;SDS011;60269;52.502;16.732;2024-03-02T10:02:52;36.20;;;18.00;;
72319;SDS011;60269;52.502;16.732;2024-03-02T10:06:25;32.88;;;17.00;;
72319;SDS011;60269;52.502;16.732;2024-03-02T10:09:58;37.87;;;16.33;;
72319;SDS011;60269;52.502;16.732;2024-03-02T10:13:46;34.83;;;16.87;;
72319;SDS011;60269;52.502;16.732;2024-03-02T10:17:18;33.15;;;17.05;;
72319;SDS011;60269;52.502;16.732;2024-03-02T10:20:51;31.98;;;16.60;;
72319;SDS011;60269;52.502;16.732;2024-03-02T10:24:23;33.03;;;16.30;;
72319;SDS011;60269;52.502;16.732;2024-03-02T10:27:56;31.95;;;17.20;;
72319;SDS011;60269;52.502;16.732;2024-03-02T10:31:30;31.88;;;16.80;;
72319;SDS011;60269;52.502;16.732;2024-03-02T10:35:02;30.37;;;17.40;;
72319;SDS011;60269;52.502;16.732;2024-03-02T10:38:35;30.27;;;17.30;;
72319;SDS011;60269;52.502;16.732;2024-03-02T10:42:08;32.47;;;17.13;;
72319;SDS011;60269;52.502;16.732;2024-03-02T10:45:41;32.05;;;16.65;;
72319;SDS011;60269;52.502;16.732;2024-03-02T10:49:13;31.57;;;17.97;;
72319;SDS011;60269;52.502;16.732;2024-03-02T10:52:45;31.25;;;18.65;;
72319;SDS011;60269;52.502;16.732;2024-03-02T10:56:21;33.03;;;18.30;;
72319;SDS011;60269;52.502;16.732;2024-03-02T11:00:02;32.85;;;17.90;;
72319;SDS011;60269;52.502;16.732;2024-03-02T11:03:35;31.70;;;18.73;;
72319;SDS011;60269;52.502;16.732;2024-03-02T11:07:11;34.20;;;19.17;;
72319;SDS011;60269;52.502;16.732;2024-03-02T11:10:50;32.22;;;17.42;;
72319;SDS011;60269;52.502;16.732;2024-03-02T11:14:25;33.97;;;18.07;;
72319;SDS011;60269;52.502;16.732;2024-03-02T11:17:57;30.33;;;18.07;;
72319;SDS011;60269;52.502;16.732;2024-03-02T11:21:30;35.22;;;18.73;;
72319;SDS011;60269;52.502;16.732;2024-03-02T11:25:04;32.80;;;18.20;;
72319;SDS011;60269;52.502;16.732;2024-03-02T11:28:37;32.17;;;17.20;;
72319;SDS011;60269;52.502;16.732;2024-03-02T11:35:48;33.72;;;20.40;;
72319;SDS011;60269;52.502;16.732;2024-03-02T11:39:20;36.57;;;18.77;;
72319;SDS011;60269;52.502;16.732;2024-03-02T11:42:52;31.20;;;18.03;;
72319;SDS011;60269;52.502;16.732;2024-03-02T11:46:25;33.75;;;20.40;;
72319;SDS011;60269;52.502;16.732;2024-03-02T11:49:57;34.22;;;18.35;;
72319;SDS011;60269;52.502;16.732;2024-03-02T11:53:30;34.80;;;16.63;;
72319;SDS011;60269;52.502;16.732;2024-03-02T11:57:06;29.08;;;15.00;;
72319;SDS011;60269;52.502;16.732;2024-03-02T12:00:38;34.20;;;16.80;;
72319;SDS011;60269;52.502;16.732;2024-03-02T12:04:11;34.58;;;16.65;;
72319;SDS011;60269;52.502;16.732;2024-03-02T12:07:43;36.13;;;19.10;;
72319;SDS011;60269;52.502;16.732;2024-03-02T12:11:15;32.45;;;17.75;;
72319;SDS011;60269;52.502;16.732;2024-03-02T12:14:51;36.47;;;17.65;;
72319;SDS011;60269;52.502;16.732;2024-03-02T12:18:24;36.03;;;18.50;;
72319;SDS011;60269;52.502;16.732;2024-03-02T12:21:58;36.42;;;17.73;;
72319;SDS011;60269;52.502;16.732;2024-03-02T12:25:31;37.00;;;18.08;;
72319;SDS011;60269;52.502;16.732;2024-03-02T12:29:04;35.72;;;17.95;;
72319;SDS011;60269;52.502;16.732;2024-03-02T12:32:37;36.43;;;18.03;;
72319;SDS011;60269;52.502;16.732;2024-03-02T12:36:11;39.28;;;18.75;;
72319;SDS011;60269;52.502;16.732;2024-03-02T12:39:45;36.65;;;18.10;;
72319;SDS011;60269;52.502;16.732;2024-03-02T12:43:18;34.83;;;17.53;;
72319;SDS011;60269;52.502;16.732;2024-03-02T12:46:50;34.57;;;16.70;;
72319;SDS011;60269;52.502;16.732;2024-03-02T12:50:25;34.88;;;19.20;;
72319;SDS011;60269;52.502;16.732;2024-03-02T12:53:57;36.75;;;18.13;;
72319;SDS011;60269;52.502;16.732;2024-03-02T12:57:30;36.43;;;18.70;;
72319;SDS011;60269;52.502;16.732;2024-03-02T13:01:07;36.47;;;17.98;;
72319;SDS011;60269;52.502;16.732;2024-03-02T13:04:40;33.92;;;17.63;;
72319;SDS011;60269;52.502;16.732;2024-03-02T13:08:12;35.77;;;17.63;;
72319;SDS011;60269;52.502;16.732;2024-03-02T13:11:44;35.27;;;17.57;;
72319;SDS011;60269;52.502;16.732;2024-03-02T13:15:16;35.97;;;18.42;;
72319;SDS011;60269;52.502;16.732;2024-03-02T13:18:49;38.40;;;18.20;;
72319;SDS011;60269;52.502;16.732;2024-03-02T13:22:21;39.57;;;18.40;;
72319;SDS011;60269;52.502;16.732;2024-03-02T13:25:53;38.13;;;19.42;;
72319;SDS011;60269;52.502;16.732;2024-03-02T13:29:25;35.75;;;16.90;;
72319;SDS011;60269;52.502;16.732;2024-03-02T13:32:57;34.53;;;18.53;;
72319;SDS011;60269;52.502;16.732;2024-03-02T13:36:30;33.50;;;17.23;;
72319;SDS011;60269;52.502;16.732;2024-03-02T13:40:02;33.58;;;16.08;;
72319;SDS011;60269;52.502;16.732;2024-03-02T13:43:36;35.08;;;16.73;;
72319;SDS011;60269;52.502;16.732;2024-03-02T13:47:10;37.00;;;18.23;;
72319;SDS011;60269;52.502;16.732;2024-03-02T13:50:42;33.72;;;17.63;;
72319;SDS011;60269;52.502;16.732;2024-03-02T13:54:14;30.25;;;15.52;;
72319;SDS011;60269;52.502;16.732;2024-03-02T13:57:47;35.20;;;18.20;;
72319;SDS011;60269;52.502;16.732;2024-03-02T14:01:20;33.33;;;17.10;;
72319;SDS011;60269;52.502;16.732;2024-03-02T14:04:53;36.60;;;17.38;;
72319;SDS011;60269;52.502;16.732;2024-03-02T14:08:25;33.07;;;15.97;;
72319;SDS011;60269;52.502;16.732;2024-03-02T14:11:57;32.67;;;16.50;;
72319;SDS011;60269;52.502;16.732;2024-03-02T14:15:32;35.85;;;17.60;;
72319;SDS011;60269;52.502;16.732;2024-03-02T14:19:04;33.20;;;17.23;;
72319;SDS011;60269;52.502;16.732;2024-03-02T14:22:36;34.87;;;17.17;;
72319;SDS011;60269;52.502;16.732;2024-03-02T14:26:09;35.90;;;17.95;;
72319;SDS011;60269;52.502;16.732;2024-03-02T14:29:42;35.45;;;16.00;;
72319;SDS011;60269;52.502;16.732;2024-03-02T14:33:15;35.10;;;16.80;;
72319;SDS011;60269;52.502;16.732;2024-03-02T14:36:48;33.60;;;15.57;;
72319;SDS011;60269;52.502;16.732;2024-03-02T14:40:20;36.20;;;17.77;;
72319;SDS011;60269;52.502;16.732;2024-03-02T14:43:53;36.00;;;17.17;;
72319;SDS011;60269;52.502;16.732;2024-03-02T14:47:25;38.80;;;18.00;;
72319;SDS011;60269;52.502;16.732;2024-03-02T14:50:57;36.28;;;17.45;;
72319;SDS011;60269;52.502;16.732;2024-03-02T14:54:29;33.53;;;16.48;;
72319;SDS011;60269;52.502;16.732;2024-03-02T14:58:01;33.07;;;15.90;;
72319;SDS011;60269;52.502;16.732;2024-03-02T15:01:33;39.03;;;16.50;;
72319;SDS011;60269;52.502;16.732;2024-03-02T15:05:06;33.88;;;16.02;;
72319;SDS011;60269;52.502;16.732;2024-03-02T15:08:38;33.97;;;15.93;;
72319;SDS011;60269;52.502;16.732;2024-03-02T15:12:13;36.67;;;16.83;;
72319;SDS011;60269;52.502;16.732;2024-03-02T15:15:46;35.25;;;15.80;;
72319;SDS011;60269;52.502;16.732;2024-03-02T15:19:18;31.67;;;14.48;;
72319;SDS011;60269;52.502;16.732;2024-03-02T15:22:50;31.30;;;15.70;;
72319;SDS011;60269;52.502;16.732;2024-03-02T15:26:22;33.00;;;15.98;;
72319;SDS011;60269;52.502;16.732;2024-03-02T15:29:54;29.90;;;14.32;;
72319;SDS011;60269;52.502;16.732;2024-03-02T15:33:29;32.43;;;14.73;;
72319;SDS011;60269;52.502;16.732;2024-03-02T15:37:03;32.40;;;14.85;;
72319;SDS011;60269;52.502;16.732;2024-03-02T15:40:36;31.50;;;15.40;;
72319;SDS011;60269;52.502;16.732;2024-03-02T15:44:08;34.53;;;14.63;;
72319;SDS011;60269;52.502;16.732;2024-03-02T15:47:40;30.17;;;14.55;;
72319;SDS011;60269;52.502;16.732;2024-03-02T15:51:12;31.35;;;15.38;;
72319;SDS011;60269;52.502;16.732;2024-03-02T15:54:45;31.63;;;16.23;;
72319;SDS011;60269;52.502;16.732;2024-03-02T15:58:17;35.40;;;16.83;;
72319;SDS011;60269;52.502;16.732;2024-03-02T16:01:50;36.42;;;17.02;;
72319;SDS011;60269;52.502;16.732;2024-03-02T16:05:22;35.55;;;17.70;;
72319;SDS011;60269;52.502;16.732;2024-03-02T16:08:54;37.13;;;18.87;;
72319;SDS011;60269;52.502;16.732;2024-03-02T16:12:28;43.17;;;20.10;;
72319;SDS011;60269;52.502;16.732;2024-03-02T16:16:00;46.28;;;20.25;;
72319;SDS011;60269;52.502;16.732;2024-03-02T16:19:33;39.37;;;19.57;;
72319;SDS011;60269;52.502;16.732;2024-03-02T16:23:05;45.53;;;19.67;;
72319;SDS011;60269;52.502;16.732;2024-03-02T16:26:37;42.90;;;21.40;;
72319;SDS011;60269;52.502;16.732;2024-03-02T16:30:10;42.10;;;20.17;;
72319;SDS011;60269;52.502;16.732;2024-03-02T16:33:43;36.40;;;17.83;;
72319;SDS011;60269;52.502;16.732;2024-03-02T16:37:16;42.80;;;18.38;;
72319;SDS011;60269;52.502;16.732;2024-03-02T16:40:48;42.60;;;20.77;;
72319;SDS011;60269;52.502;16.732;2024-03-02T16:44:20;47.00;;;22.03;;
72319;SDS011;60269;52.502;16.732;2024-03-02T16:47:52;40.67;;;19.48;;
72319;SDS011;60269;52.502;16.732;2024-03-02T16:51:24;41.78;;;20.30;;
72319;SDS011;60269;52.502;16.732;2024-03-02T16:54:56;45.77;;;19.77;;
72319;SDS011;60269;52.502;16.732;2024-03-02T16:58:31;47.08;;;19.48;;
72319;SDS011;60269;52.502;16.732;2024-03-02T17:02:03;41.47;;;19.08;;
72319;SDS011;60269;52.502;16.732;2024-03-02T17:05:36;46.95;;;21.55;;
72319;SDS011;60269;52.502;16.732;2024-03-02T17:09:08;49.23;;;21.27;;
72319;SDS011;60269;52.502;16.732;2024-03-02T17:12:40;46.22;;;21.02;;
72319;SDS011;60269;52.502;16.732;2024-03-02T17:16:12;38.60;;;18.95;;
72319;SDS011;60269;52.502;16.732;2024-03-02T17:19:45;35.67;;;18.03;;
72319;SDS011;60269;52.502;16.732;2024-03-02T17:23:17;42.22;;;19.55;;
72319;SDS011;60269;52.502;16.732;2024-03-02T17:26:49;42.78;;;19.52;;
72319;SDS011;60269;52.502;16.732;2024-03-02T17:30:21;46.67;;;20.63;;
72319;SDS011;60269;52.502;16.732;2024-03-02T17:33:53;42.58;;;20.67;;
72319;SDS011;60269;52.502;16.732;2024-03-02T17:37:25;40.00;;;19.73;;
72319;SDS011;60269;52.502;16.732;2024-03-02T17:40:57;38.13;;;19.98;;
72319;SDS011;60269;52.502;16.732;2024-03-02T17:44:29;42.00;;;20.03;;
72319;SDS011;60269;52.502;16.732;2024-03-02T17:48:02;53.15;;;20.95;;
72319;SDS011;60269;52.502;16.732;2024-03-02T17:51:34;46.60;;;20.77;;
72319;SDS011;60269;52.502;16.732;2024-03-02T17:55:06;43.57;;;19.83;;
72319;SDS011;60269;52.502;16.732;2024-03-02T17:58:38;41.72;;;21.65;;
72319;SDS011;60269;52.502;16.732;2024-03-02T18:02:10;50.50;;;22.08;;
72319;SDS011;60269;52.502;16.732;2024-03-02T18:05:42;47.77;;;22.40;;
72319;SDS011;60269;52.502;16.732;2024-03-02T18:09:14;46.00;;;21.92;;
72319;SDS011;60269;52.502;16.732;2024-03-02T18:12:46;48.88;;;22.05;;
72319;SDS011;60269;52.502;16.732;2024-03-02T18:16:18;53.88;;;23.33;;
72319;SDS011;60269;52.502;16.732;2024-03-02T18:19:51;55.20;;;23.23;;
72319;SDS011;60269;52.502;16.732;2024-03-02T18:23:23;51.03;;;23.58;;
72319;SDS011;60269;52.502;16.732;2024-03-02T18:26:55;56.17;;;23.95;;
72319;SDS011;60269;52.502;16.732;2024-03-02T18:30:27;54.87;;;23.50;;
72319;SDS011;60269;52.502;16.732;2024-03-02T18:33:59;49.88;;;22.48;;
72319;SDS011;60269;52.502;16.732;2024-03-02T18:37:31;49.10;;;21.95;;
72319;SDS011;60269;52.502;16.732;2024-03-02T18:41:03;53.53;;;22.60;;
72319;SDS011;60269;52.502;16.732;2024-03-02T18:44:35;54.22;;;24.15;;
72319;SDS011;60269;52.502;16.732;2024-03-02T18:48:08;50.03;;;23.83;;
72319;SDS011;60269;52.502;16.732;2024-03-02T18:51:40;54.45;;;22.77;;
72319;SDS011;60269;52.502;16.732;2024-03-02T18:55:13;57.27;;;23.20;;
72319;SDS011;60269;52.502;16.732;2024-03-02T18:58:46;52.33;;;22.42;;
72319;SDS011;60269;52.502;16.732;2024-03-02T19:02:18;56.75;;;23.42;;
72319;SDS011;60269;52.502;16.732;2024-03-02T19:05:49;52.87;;;22.83;;
72319;SDS011;60269;52.502;16.732;2024-03-02T19:09:21;49.25;;;22.92;;
72319;SDS011;60269;52.502;16.732;2024-03-02T19:12:54;58.88;;;25.10;;
72319;SDS011;60269;52.502;16.732;2024-03-02T19:16:26;55.40;;;23.40;;
72319;SDS011;60269;52.502;16.732;2024-03-02T19:19:58;55.42;;;24.88;;
72319;SDS011;60269;52.502;16.732;2024-03-02T19:23:30;56.55;;;24.55;;
72319;SDS011;60269;52.502;16.732;2024-03-02T19:27:10;59.65;;;25.00;;
72319;SDS011;60269;52.502;16.732;2024-03-02T19:30:42;60.50;;;24.90;;
72319;SDS011;60269;52.502;16.732;2024-03-02T19:34:18;55.70;;;24.65;;
72319;SDS011;60269;52.502;16.732;2024-03-02T19:37:54;61.33;;;23.92;;
72319;SDS011;60269;52.502;16.732;2024-03-02T19:41:27;56.97;;;25.23;;
72319;SDS011;60269;52.502;16.732;2024-03-02T19:44:59;54.55;;;23.85;;
72319;SDS011;60269;52.502;16.732;2024-03-02T19:48:31;53.08;;;24.27;;
72319;SDS011;60269;52.502;16.732;2024-03-02T19:52:03;57.03;;;25.23;;
72319;SDS011;60269;52.502;16.732;2024-03-02T19:55:35;54.95;;;24.95;;
72319;SDS011;60269;52.502;16.732;2024-03-02T19:59:09;57.22;;;24.98;;
72319;SDS011;60269;52.502;16.732;2024-03-02T20:03:01;58.38;;;24.40;;
72319;SDS011;60269;52.502;16.732;2024-03-02T20:06:57;59.47;;;23.90;;
72319;SDS011;60269;52.502;16.732;2024-03-02T20:10:29;60.13;;;24.02;;
72319;SDS011;60269;52.502;16.732;2024-03-02T20:14:01;57.00;;;25.30;;
72319;SDS011;60269;52.502;16.732;2024-03-02T20:17:33;52.33;;;23.30;;
72319;SDS011;60269;52.502;16.732;2024-03-02T20:21:05;63.38;;;24.02;;
72319;SDS011;60269;52.502;16.732;2024-03-02T20:24:37;55.08;;;24.90;;
72319;SDS011;60269;52.502;16.732;2024-03-02T20:28:09;59.77;;;23.47;;
72319;SDS011;60269;52.502;16.732;2024-03-02T20:31:41;58.40;;;25.63;;